createdAt,value
2023-01-01T00:00:48.796Z,245.40
2023-01-01T00:03:16.370Z,254.00
2023-01-01T00:05:43.780Z,260.27
2023-01-01T00:08:29.433Z,239.63
2023-01-01T00:11:01.410Z,215.07
2023-01-01T00:15:56.044Z,176.48
2023-01-01T00:18:23.422Z,162.23
2023-01-01T00:20:50.805Z,151.43
2023-01-01T00:23:18.189Z,137.05
2023-01-01T00:25:45.511Z,122.45
2023-01-01T00:28:13.069Z,127.20
2023-01-01T00:30:41.785Z,127.43
2023-01-01T00:33:09.191Z,116.50
2023-01-01T00:35:36.580Z,96.68
2023-01-01T00:38:04.001Z,78.13
2023-01-01T00:40:31.583Z,69.13
2023-01-01T00:42:58.937Z,65.47
2023-01-01T00:45:26.284Z,68.07
2023-01-01T00:47:54.357Z,62.40
2023-01-01T00:50:22.543Z,59.20
2023-01-01T00:52:50.505Z,56.53
2023-01-01T00:55:18.103Z,64.10
2023-01-01T00:57:45.504Z,59.70
2023-01-01T01:00:13.913Z,64.20
2023-01-01T01:02:41.562Z,66.90
2023-01-01T01:05:09.689Z,67.60
2023-01-01T01:07:38.130Z,70.88
2023-01-01T01:10:06.355Z,81.60
2023-01-01T01:12:34.937Z,82.50
2023-01-01T01:15:03.442Z,82.07
2023-01-01T01:17:31.180Z,77.30
2023-01-01T01:19:58.885Z,80.78
2023-01-01T01:22:28.921Z,74.10
2023-01-01T01:24:57.803Z,77.38
2023-01-01T01:27:25.419Z,74.53
2023-01-01T01:29:53.853Z,76.20
2023-01-01T01:32:39.978Z,69.97
2023-01-01T01:35:07.780Z,74.32
2023-01-01T01:37:35.293Z,74.20
2023-01-01T01:40:02.847Z,70.55
2023-01-01T01:42:30.215Z,70.88
2023-01-01T01:45:00.817Z,72.40
2023-01-01T01:47:39.471Z,68.03
2023-01-01T01:50:13.611Z,64.70
2023-01-01T01:52:51.974Z,65.25
2023-01-01T01:55:19.363Z,63.15
2023-01-01T01:57:46.763Z,63.97
2023-01-01T02:00:14.717Z,64.20
2023-01-01T02:02:54.701Z,61.33
2023-01-01T02:05:22.964Z,57.85
2023-01-01T02:07:52.540Z,58.30
2023-01-01T02:10:20.096Z,54.17
2023-01-01T02:12:47.700Z,55.60
2023-01-01T02:15:15.424Z,52.55
2023-01-01T02:17:57.711Z,50.97
2023-01-01T02:20:31.208Z,55.15
2023-01-01T02:23:26.451Z,56.15
2023-01-01T02:26:21.095Z,56.72
2023-01-01T02:29:01.105Z,60.05
2023-01-01T02:31:35.447Z,51.63
2023-01-01T02:34:06.842Z,53.92
2023-01-01T02:36:39.773Z,48.15
2023-01-01T02:39:09.429Z,52.08
2023-01-01T02:41:42.257Z,52.92
2023-01-01T02:44:11.766Z,129.65
2023-01-01T02:46:39.217Z,52.67
2023-01-01T02:49:10.643Z,53.25
2023-01-01T02:52:06.690Z,48.42
2023-01-01T02:54:37.909Z,50.67
2023-01-01T02:57:31.544Z,55.53
2023-01-01T03:00:21.604Z,49.90
2023-01-01T03:03:01.184Z,50.28
2023-01-01T03:05:37.436Z,52.58
2023-01-01T03:08:10.221Z,54.15
2023-01-01T03:10:56.408Z,50.90
2023-01-01T03:13:49.978Z,50.10
2023-01-01T03:16:39.429Z,48.10
2023-01-01T03:19:25.892Z,47.55
2023-01-01T03:22:02.535Z,47.50
2023-01-01T03:24:34.491Z,46.10
2023-01-01T03:29:40.375Z,49.80
2023-01-01T03:32:15.915Z,46.92
2023-01-01T03:34:53.175Z,46.25
2023-01-01T03:37:26.232Z,50.63
2023-01-01T03:39:57.940Z,44.30
2023-01-01T03:42:36.414Z,49.15
2023-01-01T03:45:10.674Z,47.50
2023-01-01T03:47:38.355Z,46.08
2023-01-01T03:50:06.558Z,44.55
2023-01-01T03:52:49.299Z,41.90
2023-01-01T03:55:31.375Z,47.70
2023-01-01T03:58:07.764Z,41.17
2023-01-01T04:00:40.119Z,41.03
2023-01-01T04:03:23.622Z,44.33
2023-01-01T04:05:51.641Z,42.28
2023-01-01T04:08:19.596Z,49.42
2023-01-01T04:10:56.413Z,44.33
2023-01-01T04:13:24.277Z,45.70
2023-01-01T04:15:52.243Z,41.65
2023-01-01T04:18:19.798Z,44.45
2023-01-01T04:20:47.268Z,42.40
2023-01-01T04:23:14.969Z,44.17
2023-01-01T04:25:42.347Z,49.15
2023-01-01T04:28:09.759Z,39.25
2023-01-01T04:33:03.401Z,43.58
2023-01-01T04:35:30.841Z,45.20
2023-01-01T04:38:00.587Z,40.42
2023-01-01T04:40:28.017Z,41.40
2023-01-01T04:42:55.430Z,42.28
2023-01-01T04:45:22.931Z,40.95
2023-01-01T04:47:50.533Z,44.10
2023-01-01T04:50:17.949Z,46.15
2023-01-01T04:52:45.436Z,47.97
2023-01-01T04:55:12.907Z,40.35
2023-01-01T04:57:40.600Z,41.90
2023-01-01T05:00:08.783Z,42.95
2023-01-01T05:02:36.287Z,44.80
2023-01-01T05:05:04.024Z,42.70
2023-01-01T05:07:33.632Z,44.13
2023-01-01T05:10:00.993Z,40.40
2023-01-01T05:12:30.178Z,45.22
2023-01-01T05:14:57.664Z,43.55
2023-01-01T05:17:25.056Z,46.58
2023-01-01T05:19:52.451Z,44.60
2023-01-01T05:22:19.864Z,45.92
2023-01-01T05:24:47.301Z,49.83
2023-01-01T05:27:14.688Z,49.15
2023-01-01T05:29:42.136Z,45.47
2023-01-01T05:37:02.015Z,51.85
2023-01-01T05:39:29.351Z,52.30
2023-01-01T05:41:58.241Z,50.97
2023-01-01T05:44:26.048Z,46.13
2023-01-01T05:46:53.431Z,51.45
2023-01-01T05:49:20.771Z,50.85
2023-01-01T05:51:48.079Z,47.65
2023-01-01T05:56:41.818Z,49.80
2023-01-01T05:59:10.815Z,47.78
2023-01-01T06:01:45.184Z,45.45
2023-01-01T06:04:13.557Z,49.10
2023-01-01T06:06:41.106Z,50.25
2023-01-01T06:09:10.809Z,45.70
2023-01-01T06:11:38.341Z,46.72
2023-01-01T06:14:05.830Z,43.35
2023-01-01T06:16:33.317Z,48.75
2023-01-01T06:19:00.837Z,49.65
2023-01-01T06:21:29.582Z,48.38
2023-01-01T06:24:00.365Z,51.10
2023-01-01T06:26:30.998Z,50.08
2023-01-01T06:29:00.143Z,49.35
2023-01-01T06:31:28.583Z,50.28
2023-01-01T06:33:56.199Z,49.47
2023-01-01T06:36:25.453Z,48.47
2023-01-01T06:38:55.783Z,45.58
2023-01-01T06:41:25.732Z,52.38
2023-01-01T06:43:58.020Z,48.20
2023-01-01T06:46:28.172Z,49.50
2023-01-01T06:49:07.685Z,44.47
2023-01-01T06:51:40.565Z,47.33
2023-01-01T06:54:09.093Z,52.90
2023-01-01T06:56:37.370Z,43.83
2023-01-01T06:59:05.679Z,49.05
2023-01-01T07:01:39.628Z,43.13
2023-01-01T07:04:11.106Z,42.40
2023-01-01T07:06:39.263Z,43.40
2023-01-01T07:09:08.201Z,56.80
2023-01-01T07:11:36.284Z,41.55
2023-01-01T07:14:03.903Z,42.97
2023-01-01T07:16:31.402Z,43.67
2023-01-01T07:18:58.908Z,43.15
2023-01-01T07:21:29.614Z,44.80
2023-01-01T07:23:59.268Z,40.08
2023-01-01T07:26:28.350Z,44.47
2023-01-01T07:28:59.623Z,49.13
2023-01-01T07:31:34.260Z,44.85
2023-01-01T07:34:01.996Z,47.03
2023-01-01T07:36:29.429Z,41.47
2023-01-01T07:38:56.859Z,42.45
2023-01-01T07:41:24.303Z,41.33
2023-01-01T07:43:52.488Z,46.55
2023-01-01T07:46:20.166Z,44.45
2023-01-01T07:48:47.745Z,42.95
2023-01-01T07:51:15.631Z,45.17
2023-01-01T07:53:43.091Z,41.72
2023-01-01T07:56:10.764Z,45.15
2023-01-01T07:58:41.723Z,41.47
2023-01-01T08:01:14.725Z,42.97
2023-01-01T08:03:42.559Z,43.20
2023-01-01T08:06:12.312Z,45.80
2023-01-01T08:08:40.191Z,43.60
2023-01-01T08:11:08.794Z,43.25
2023-01-01T08:13:36.462Z,41.15
2023-01-01T08:16:04.330Z,39.40
2023-01-01T08:18:31.870Z,41.20
2023-01-01T08:20:59.268Z,35.75
2023-01-01T08:23:26.798Z,37.00
2023-01-01T08:25:58.014Z,37.08
2023-01-01T08:28:25.305Z,36.67
2023-01-01T08:30:52.915Z,39.80
2023-01-01T08:33:21.176Z,39.13
2023-01-01T08:35:54.004Z,41.35
2023-01-01T08:38:22.235Z,45.28
2023-01-01T08:40:49.749Z,55.40
2023-01-01T08:43:17.470Z,62.38
2023-01-01T08:45:45.763Z,61.10
2023-01-01T08:48:13.143Z,64.45
2023-01-01T08:50:40.520Z,66.47
2023-01-01T08:53:07.948Z,67.03
2023-01-01T08:55:35.586Z,70.72
2023-01-01T08:58:06.701Z,69.95
2023-01-01T09:00:34.052Z,76.97
2023-01-01T09:03:01.635Z,71.68
2023-01-01T09:05:29.156Z,79.72
2023-01-01T09:07:56.549Z,79.63
2023-01-01T09:10:23.963Z,78.68
2023-01-01T09:12:51.385Z,69.93
2023-01-01T09:15:18.793Z,77.63
2023-01-01T09:17:46.179Z,76.00
2023-01-01T09:20:13.680Z,72.97
2023-01-01T09:22:41.073Z,71.63
2023-01-01T09:25:08.693Z,74.47
2023-01-01T09:27:36.131Z,72.18
2023-01-01T09:30:04.439Z,73.60
2023-01-01T09:32:32.116Z,72.50
2023-01-01T09:35:01.125Z,71.97
2023-01-01T09:37:28.639Z,73.15
2023-01-01T09:39:56.067Z,71.40
2023-01-01T09:42:35.981Z,69.20
2023-01-01T09:45:07.614Z,72.72
2023-01-01T09:47:41.301Z,70.97
2023-01-01T09:50:15.139Z,70.35
2023-01-01T09:52:51.360Z,68.32
2023-01-01T09:55:26.006Z,71.53
2023-01-01T09:57:55.606Z,69.40
2023-01-01T10:00:23.383Z,66.43
2023-01-01T10:03:17.264Z,70.00
2023-01-01T10:05:44.551Z,73.45
2023-01-01T10:08:25.053Z,72.07
2023-01-01T10:11:17.558Z,67.65
2023-01-01T10:13:46.272Z,70.60
2023-01-01T10:16:25.478Z,70.47
2023-01-01T10:18:56.896Z,70.90
2023-01-01T10:21:34.178Z,67.93
2023-01-01T10:24:06.175Z,74.72
2023-01-01T10:29:25.285Z,67.88
2023-01-01T10:31:55.315Z,68.28
2023-01-01T10:34:32.377Z,69.68
2023-01-01T10:37:00.984Z,75.88
2023-01-01T10:39:28.544Z,69.47
2023-01-01T10:41:57.975Z,72.00
2023-01-01T10:44:34.531Z,68.63
2023-01-01T10:47:30.117Z,65.20
2023-01-01T10:50:07.654Z,65.60
2023-01-01T10:52:38.024Z,65.97
2023-01-01T10:55:06.704Z,68.05
2023-01-01T10:57:38.617Z,61.80
2023-01-01T11:02:39.068Z,65.10
2023-01-01T11:05:21.425Z,64.47
2023-01-01T11:07:50.224Z,65.15
2023-01-01T11:10:24.010Z,61.58
2023-01-01T11:13:09.177Z,64.78
2023-01-01T11:15:42.092Z,66.45
2023-01-01T11:18:41.859Z,61.13
2023-01-01T11:21:09.461Z,59.80
2023-01-01T11:23:39.583Z,64.05
2023-01-01T11:26:20.958Z,67.40
2023-01-01T11:29:14.651Z,62.58
2023-01-01T11:31:48.110Z,63.05
2023-01-01T11:34:38.204Z,63.88
2023-01-01T11:37:19.761Z,59.97
2023-01-01T11:39:51.073Z,59.92
2023-01-01T11:42:27.425Z,61.25
2023-01-01T11:44:59.493Z,66.38
2023-01-01T11:47:40.759Z,67.55
2023-01-01T11:50:13.806Z,66.95
2023-01-01T11:52:44.476Z,67.30
2023-01-01T11:55:37.830Z,64.55
2023-01-01T11:58:19.915Z,64.68
2023-01-01T12:00:56.304Z,64.25
2023-01-01T12:03:33.794Z,64.05
2023-01-01T12:06:23.792Z,70.53
2023-01-01T12:09:05.231Z,65.95
2023-01-01T12:11:44.614Z,62.40
2023-01-01T12:14:42.600Z,64.35
2023-01-01T12:17:16.844Z,65.55
2023-01-01T12:20:43.995Z,70.25
2023-01-01T12:23:17.572Z,64.78
2023-01-01T12:25:52.610Z,71.70
2023-01-01T12:28:34.135Z,69.40
2023-01-01T12:31:08.096Z,73.07
2023-01-01T12:33:53.457Z,69.38
2023-01-01T12:37:13.418Z,69.90
2023-01-01T12:39:52.862Z,72.95
2023-01-01T12:42:36.586Z,73.22
2023-01-01T12:45:15.899Z,71.93
2023-01-01T12:48:13.944Z,73.35
2023-01-01T12:50:56.094Z,75.45
2023-01-01T12:53:57.881Z,69.13
2023-01-01T12:56:39.618Z,74.38
2023-01-01T12:59:20.162Z,71.78
2023-01-01T13:01:49.557Z,74.93
2023-01-01T13:04:22.323Z,68.80
2023-01-01T13:07:06.774Z,69.65
2023-01-01T13:09:45.320Z,69.97
2023-01-01T13:12:16.542Z,69.75
2023-01-01T13:14:46.409Z,66.13
2023-01-01T13:17:22.675Z,67.80
2023-01-01T13:19:57.886Z,68.22
2023-01-01T13:22:28.288Z,63.72
2023-01-01T13:25:07.584Z,63.90
2023-01-01T13:28:00.674Z,66.65
2023-01-01T13:30:37.554Z,63.53
2023-01-01T13:33:21.519Z,70.15
2023-01-01T13:36:08.464Z,62.55
2023-01-01T13:38:52.710Z,63.58
2023-01-01T13:41:38.750Z,63.25
2023-01-01T13:44:06.060Z,58.00
2023-01-01T13:46:39.393Z,61.55
2023-01-01T13:49:28.306Z,60.08
2023-01-01T13:52:20.521Z,65.20
2023-01-01T13:55:02.394Z,79.05
2023-01-01T13:57:32.451Z,66.60
2023-01-01T14:00:16.487Z,63.70
2023-01-01T14:03:00.610Z,63.20
2023-01-01T14:05:37.421Z,66.55
2023-01-01T14:08:09.933Z,65.13
2023-01-01T14:10:40.623Z,68.93
2023-01-01T14:13:10.802Z,64.53
2023-01-01T14:15:41.683Z,66.70
2023-01-01T14:18:16.480Z,63.40
2023-01-01T14:20:48.224Z,66.63
2023-01-01T14:23:21.719Z,72.05
2023-01-01T14:25:49.623Z,66.07
2023-01-01T14:28:26.031Z,68.65
2023-01-01T14:30:56.153Z,69.25
2023-01-01T14:33:26.930Z,65.65
2023-01-01T14:35:56.859Z,68.07
2023-01-01T14:38:33.390Z,68.43
2023-01-01T14:41:11.394Z,65.95
2023-01-01T14:43:41.413Z,69.18
2023-01-01T14:46:18.651Z,68.00
2023-01-01T14:48:48.361Z,65.20
2023-01-01T14:51:19.799Z,64.82
2023-01-01T14:53:49.222Z,70.00
2023-01-01T14:56:28.635Z,64.63
2023-01-01T14:59:22.302Z,67.10
2023-01-01T15:02:16.876Z,93.18
2023-01-01T15:04:44.575Z,70.60
2023-01-01T15:07:23.798Z,71.03
2023-01-01T15:09:53.989Z,64.35
2023-01-01T15:12:22.912Z,66.22
2023-01-01T15:14:53.129Z,65.93
2023-01-01T15:17:23.444Z,64.30
2023-01-01T15:20:01.583Z,61.78
2023-01-01T15:22:35.159Z,69.40
2023-01-01T15:25:04.210Z,65.38
2023-01-01T15:27:36.699Z,65.18
2023-01-01T15:30:13.222Z,61.85
2023-01-01T15:32:41.538Z,63.42
2023-01-01T15:35:32.803Z,62.40
2023-01-01T15:38:10.828Z,66.30
2023-01-01T15:40:38.314Z,58.97
2023-01-01T15:43:14.502Z,59.28
2023-01-01T15:45:42.671Z,58.17
2023-01-01T15:48:31.796Z,58.17
2023-01-01T15:51:09.205Z,58.63
2023-01-01T15:53:49.161Z,57.47
2023-01-01T15:56:17.689Z,55.47
2023-01-01T15:59:03.723Z,55.40
2023-01-01T16:01:38.936Z,57.50
2023-01-01T16:04:29.043Z,53.80
2023-01-01T16:06:59.862Z,56.53
2023-01-01T16:09:38.811Z,55.10
2023-01-01T16:12:08.358Z,54.58
2023-01-01T16:14:36.126Z,54.60
2023-01-01T16:17:03.829Z,58.22
2023-01-01T16:19:32.479Z,56.35
2023-01-01T16:21:59.856Z,54.13
2023-01-01T16:24:27.859Z,54.65
2023-01-01T16:26:55.228Z,57.42
2023-01-01T16:29:22.619Z,55.85
2023-01-01T16:31:50.935Z,55.97
2023-01-01T16:34:18.305Z,63.83
2023-01-01T16:36:45.974Z,58.75
2023-01-01T16:39:13.515Z,59.63
2023-01-01T16:41:42.772Z,59.10
2023-01-01T16:44:16.783Z,59.03
2023-01-01T16:46:44.265Z,62.77
2023-01-01T16:49:11.747Z,57.40
2023-01-01T16:51:43.461Z,56.17
2023-01-01T16:54:11.752Z,60.33
2023-01-01T16:56:39.112Z,59.28
2023-01-01T16:59:06.482Z,61.90
2023-01-01T17:01:34.027Z,60.72
2023-01-01T17:04:01.458Z,62.65
2023-01-01T17:06:29.290Z,60.03
2023-01-01T17:08:56.775Z,61.63
2023-01-01T17:11:25.046Z,63.92
2023-01-01T17:13:52.958Z,63.60
2023-01-01T17:16:26.363Z,62.53
2023-01-01T17:21:45.918Z,62.28
2023-01-01T17:24:15.278Z,65.22
2023-01-01T17:26:42.792Z,64.30
2023-01-01T17:29:10.379Z,64.35
2023-01-01T17:31:38.199Z,75.10
2023-01-01T17:34:05.623Z,62.08
2023-01-01T17:36:33.013Z,58.92
2023-01-01T17:39:00.367Z,63.95
2023-01-01T17:41:27.780Z,65.88
2023-01-01T17:43:55.951Z,61.75
2023-01-01T17:46:26.031Z,63.83
2023-01-01T17:48:54.524Z,64.50
2023-01-01T17:51:22.775Z,62.38
2023-01-01T17:53:50.236Z,58.95
2023-01-01T17:56:19.608Z,60.53
2023-01-01T17:58:48.003Z,61.08
2023-01-01T18:01:21.625Z,61.30
2023-01-01T18:03:51.633Z,61.28
2023-01-01T18:06:19.194Z,60.28
2023-01-01T18:08:46.853Z,59.47
2023-01-01T18:11:14.670Z,61.83
2023-01-01T18:13:42.055Z,65.03
2023-01-01T18:16:10.254Z,58.05
2023-01-01T18:18:39.166Z,53.90
2023-01-01T18:21:19.348Z,53.33
2023-01-01T18:23:47.728Z,62.92
2023-01-01T18:26:15.840Z,69.72
2023-01-01T18:28:43.315Z,57.25
2023-01-01T18:31:20.532Z,55.65
2023-01-01T18:33:48.036Z,53.08
2023-01-01T18:36:18.611Z,53.88
2023-01-01T18:38:55.563Z,59.70
2023-01-01T18:41:50.737Z,56.63
2023-01-01T18:44:22.379Z,54.08
2023-01-01T18:47:03.921Z,54.00
2023-01-01T18:49:32.099Z,56.72
2023-01-01T18:52:24.446Z,56.97
2023-01-01T18:57:29.909Z,53.50
2023-01-01T19:00:31.232Z,55.53
2023-01-01T19:03:01.764Z,57.85
2023-01-01T19:05:34.118Z,52.40
2023-01-01T19:08:10.321Z,48.65
2023-01-01T19:10:43.128Z,56.45
2023-01-01T19:13:35.031Z,51.20
2023-01-01T19:16:11.688Z,50.83
2023-01-01T19:18:41.763Z,49.28
2023-01-01T19:21:12.104Z,51.65
2023-01-01T19:23:50.668Z,49.85
2023-01-01T19:26:29.781Z,52.08
2023-01-01T19:29:13.096Z,49.75
2023-01-01T19:31:40.954Z,54.88
2023-01-01T19:34:08.380Z,48.33
2023-01-01T19:36:35.711Z,49.47
2023-01-01T19:39:03.319Z,51.72
2023-01-01T19:41:30.746Z,48.85
2023-01-01T19:43:58.108Z,49.33
2023-01-01T19:46:25.516Z,50.42
2023-01-01T19:48:55.821Z,53.65
2023-01-01T19:51:23.399Z,53.42
2023-01-01T19:53:52.548Z,53.50
2023-01-01T19:56:20.575Z,52.80
2023-01-01T19:58:48.446Z,52.58
2023-01-01T20:01:16.118Z,54.42
2023-01-01T20:03:54.256Z,57.70
2023-01-01T20:06:22.395Z,56.95
2023-01-01T20:08:49.840Z,56.88
2023-01-01T20:11:17.397Z,57.78
2023-01-01T20:13:44.827Z,55.70
2023-01-01T20:16:12.423Z,55.92
2023-01-01T20:18:39.895Z,55.90
2023-01-01T20:21:26.924Z,53.10
2023-01-01T20:23:55.572Z,58.28
2023-01-01T20:26:25.624Z,62.25
2023-01-01T20:29:11.719Z,63.35
2023-01-01T20:31:39.779Z,69.18
2023-01-01T20:34:07.496Z,68.10
2023-01-01T20:36:53.508Z,70.88
2023-01-01T20:39:22.510Z,66.00
2023-01-01T20:41:50.185Z,64.25
2023-01-01T20:44:17.772Z,66.13
2023-01-01T20:46:48.092Z,62.55
2023-01-01T20:49:19.491Z,60.88
2023-01-01T20:51:51.376Z,64.82
2023-01-01T20:54:20.209Z,62.90
2023-01-01T20:56:47.886Z,63.25
2023-01-01T20:59:34.757Z,59.88
2023-01-01T21:02:04.974Z,60.78
2023-01-01T21:04:32.706Z,61.17
2023-01-01T21:07:00.159Z,64.18
2023-01-01T21:09:27.487Z,62.65
2023-01-01T21:11:54.881Z,62.75
2023-01-01T21:14:25.172Z,63.08
2023-01-01T21:16:52.914Z,63.25
2023-01-01T21:19:26.260Z,64.28
2023-01-01T21:21:58.542Z,60.42
2023-01-01T21:24:35.302Z,60.22
2023-01-01T21:27:25.976Z,61.03
2023-01-01T21:29:56.063Z,62.58
2023-01-01T21:32:26.867Z,62.63
2023-01-01T21:34:55.545Z,60.58
2023-01-01T21:37:45.192Z,64.05
2023-01-01T21:40:36.863Z,61.40
2023-01-01T21:43:19.309Z,61.10
2023-01-01T21:45:48.541Z,62.70
2023-01-01T21:48:19.263Z,58.78
2023-01-01T21:50:48.417Z,63.83
2023-01-01T21:53:21.917Z,60.28
2023-01-01T21:55:52.288Z,58.53
2023-01-01T21:58:56.911Z,59.78
2023-01-01T22:01:35.954Z,57.08
2023-01-01T22:04:19.575Z,62.10
2023-01-01T22:07:00.673Z,59.92
2023-01-01T22:09:48.645Z,58.03
2023-01-01T22:12:15.956Z,62.15
2023-01-01T22:14:45.837Z,60.80
2023-01-01T22:17:25.129Z,61.60
2023-01-01T22:19:59.093Z,57.42
2023-01-01T22:22:34.182Z,58.88
2023-01-01T22:25:17.907Z,60.95
2023-01-01T22:27:46.137Z,57.80
2023-01-01T22:30:13.475Z,59.53
2023-01-01T22:32:40.875Z,57.38
2023-01-01T22:35:16.980Z,65.57
2023-01-01T22:37:44.353Z,59.38
2023-01-01T22:40:23.732Z,61.88
2023-01-01T22:42:51.136Z,63.53
2023-01-01T22:45:18.596Z,59.22
2023-01-01T22:47:46.167Z,61.80
2023-01-01T22:50:23.401Z,63.70
2023-01-01T22:52:51.049Z,60.45
2023-01-01T22:55:18.917Z,59.08
2023-01-01T22:57:46.344Z,65.93
2023-01-01T23:00:15.302Z,64.90
2023-01-01T23:02:43.244Z,57.83
2023-01-01T23:05:11.533Z,61.40
2023-01-01T23:07:42.064Z,59.35
2023-01-01T23:10:14.962Z,61.40
2023-01-01T23:12:42.342Z,62.88
2023-01-01T23:15:28.930Z,61.13
2023-01-01T23:17:56.345Z,61.58
2023-01-01T23:20:23.765Z,65.25
2023-01-01T23:22:54.203Z,60.33
2023-01-01T23:25:22.762Z,62.17
2023-01-01T23:27:52.664Z,61.60
2023-01-01T23:30:20.131Z,60.47
2023-01-01T23:32:47.819Z,60.10
2023-01-01T23:35:16.898Z,64.30
2023-01-01T23:37:44.337Z,59.33
2023-01-01T23:40:11.926Z,64.82
2023-01-01T23:42:39.280Z,59.10
2023-01-01T23:45:06.961Z,62.83
2023-01-01T23:47:34.668Z,64.65
2023-01-01T23:50:02.498Z,61.03
2023-01-01T23:52:30.119Z,60.50
2023-01-01T23:54:57.484Z,63.20
2023-01-01T23:57:24.845Z,64.93
2023-01-01T23:59:52.190Z,64.15
